createdAt,value
2022-10-17T00:00:52.593Z,2.35
2022-10-17T00:03:20.768Z,1.90
2022-10-17T00:05:49.668Z,2.50
2022-10-17T00:08:19.995Z,2.22
2022-10-17T00:10:57.584Z,2.60
2022-10-17T00:13:26.904Z,2.55
2022-10-17T00:15:56.485Z,2.53
2022-10-17T00:18:24.437Z,2.50
2022-10-17T00:20:52.398Z,2.40
2022-10-17T00:23:21.704Z,2.50
2022-10-17T00:25:58.338Z,2.08
2022-10-17T00:28:26.559Z,2.42
2022-10-17T00:30:58.468Z,2.42
2022-10-17T00:33:26.943Z,2.67
2022-10-17T00:36:04.633Z,2.20
2022-10-17T00:38:34.002Z,2.30
2022-10-17T00:41:02.171Z,2.03
2022-10-17T00:43:30.619Z,2.30
2022-10-17T00:45:58.540Z,2.03
2022-10-17T00:48:27.410Z,2.65
2022-10-17T00:50:55.971Z,2.58
2022-10-17T00:53:23.979Z,2.80
2022-10-17T00:55:54.964Z,2.47
2022-10-17T00:58:23.032Z,2.25
2022-10-17T01:00:51.061Z,2.90
2022-10-17T01:03:19.031Z,2.60
2022-10-17T01:05:48.103Z,2.70
2022-10-17T01:08:16.309Z,2.50
2022-10-17T01:10:55.897Z,2.47
2022-10-17T01:13:31.106Z,2.40
2022-10-17T01:16:09.341Z,2.33
2022-10-17T01:18:50.755Z,2.30
2022-10-17T01:21:34.447Z,2.70
2022-10-17T01:27:12.023Z,2.50
2022-10-17T01:30:00.881Z,2.05
2022-10-17T01:32:36.194Z,2.35
2022-10-17T01:35:12.624Z,2.03
2022-10-17T01:37:46.261Z,2.03
2022-10-17T01:40:21.304Z,2.60
2022-10-17T01:42:56.447Z,2.30
2022-10-17T01:45:31.181Z,2.60
2022-10-17T01:48:09.900Z,2.30
2022-10-17T01:50:42.466Z,2.58
2022-10-17T01:53:15.811Z,2.67
2022-10-17T01:55:47.184Z,2.28
2022-10-17T01:58:20.334Z,2.35
2022-10-17T02:00:49.633Z,2.03
2022-10-17T02:03:21.764Z,2.03
2022-10-17T02:05:49.774Z,2.13
2022-10-17T02:08:27.571Z,2.20
2022-10-17T02:11:01.764Z,2.10
2022-10-17T02:13:46.342Z,2.28
2022-10-17T02:16:28.293Z,2.10
2022-10-17T02:19:25.324Z,1.88
2022-10-17T02:22:05.272Z,1.92
2022-10-17T02:24:36.849Z,2.10
2022-10-17T02:27:10.748Z,1.50
2022-10-17T02:29:47.855Z,1.60
2022-10-17T02:34:57.093Z,2.05
2022-10-17T02:37:29.940Z,2.28
2022-10-17T02:40:01.537Z,2.03
2022-10-17T02:42:31.002Z,1.90
2022-10-17T02:45:02.569Z,1.98
2022-10-17T02:47:36.260Z,1.92
2022-10-17T02:52:38.567Z,1.75
2022-10-17T02:55:13.194Z,1.83
2022-10-17T02:57:46.478Z,2.22
2022-10-17T03:00:16.395Z,2.00
2022-10-17T03:02:49.609Z,2.13
2022-10-17T03:05:21.824Z,2.00
2022-10-17T03:07:49.816Z,2.05
2022-10-17T03:10:18.105Z,2.15
2022-10-17T03:12:46.235Z,2.08
2022-10-17T03:15:14.924Z,2.03
2022-10-17T03:20:18.899Z,1.88
2022-10-17T03:22:47.092Z,1.98
2022-10-17T03:25:15.148Z,2.33
2022-10-17T03:27:43.907Z,2.30
2022-10-17T03:30:12.501Z,2.17
2022-10-17T03:32:40.667Z,2.17
2022-10-17T03:35:12.620Z,2.35
2022-10-17T03:37:46.868Z,1.95
2022-10-17T03:40:15.974Z,1.90
2022-10-17T03:42:44.692Z,1.90
2022-10-17T03:45:12.644Z,1.80
2022-10-17T03:47:40.632Z,1.95
2022-10-17T03:50:09.406Z,2.00
2022-10-17T03:52:39.251Z,1.75
2022-10-17T03:55:09.222Z,1.50
2022-10-17T03:57:40.199Z,2.05
2022-10-17T04:00:12.605Z,1.55
2022-10-17T04:02:44.860Z,2.00
2022-10-17T04:05:18.876Z,1.80
2022-10-17T04:07:47.727Z,1.70
2022-10-17T04:10:19.014Z,1.92
2022-10-17T04:12:48.377Z,2.10
2022-10-17T04:15:16.525Z,1.90
2022-10-17T04:17:48.472Z,2.15
2022-10-17T04:20:17.339Z,2.05
2022-10-17T04:22:45.368Z,1.85
2022-10-17T04:25:14.412Z,1.73
2022-10-17T04:27:48.993Z,2.28
2022-10-17T04:30:17.228Z,1.52
2022-10-17T04:32:46.009Z,1.90
2022-10-17T04:35:19.273Z,1.80
2022-10-17T04:37:53.336Z,2.10
2022-10-17T04:40:22.263Z,2.00
2022-10-17T04:42:54.325Z,2.20
2022-10-17T04:45:28.660Z,1.73
2022-10-17T04:48:01.188Z,1.85
2022-10-17T04:50:29.339Z,1.85
2022-10-17T04:53:28.715Z,2.00
2022-10-17T04:55:56.799Z,1.70
2022-10-17T04:58:26.707Z,2.17
2022-10-17T05:00:54.728Z,2.40
2022-10-17T05:03:27.063Z,1.83
2022-10-17T05:05:55.087Z,2.33
2022-10-17T05:08:23.737Z,2.20
2022-10-17T05:10:52.001Z,2.50
2022-10-17T05:13:23.638Z,2.40
2022-10-17T05:15:53.783Z,2.20
2022-10-17T05:18:21.969Z,2.30
2022-10-17T05:20:50.007Z,2.28
2022-10-17T05:23:19.505Z,2.15
2022-10-17T05:25:47.573Z,2.28
2022-10-17T05:28:15.527Z,2.05
2022-10-17T05:30:44.237Z,2.50
2022-10-17T05:33:13.677Z,2.60
2022-10-17T05:35:41.908Z,2.20
2022-10-17T05:38:09.937Z,2.13
2022-10-17T05:40:39.512Z,2.20
2022-10-17T05:43:07.634Z,2.08
2022-10-17T05:45:36.601Z,2.08
2022-10-17T05:48:05.129Z,2.30
2022-10-17T05:50:36.095Z,2.78
2022-10-17T05:53:09.666Z,3.05
2022-10-17T05:55:41.808Z,2.63
2022-10-17T05:58:14.297Z,2.75
2022-10-17T06:00:59.652Z,2.28
2022-10-17T06:05:58.140Z,2.90
2022-10-17T06:08:26.139Z,2.67
2022-10-17T06:10:54.278Z,2.70
2022-10-17T06:13:22.837Z,3.15
2022-10-17T06:15:53.116Z,2.50
2022-10-17T06:18:21.190Z,2.53
2022-10-17T06:20:49.578Z,2.55
2022-10-17T06:23:21.226Z,2.90
2022-10-17T06:26:06.333Z,2.30
2022-10-17T06:28:35.729Z,2.33
2022-10-17T06:31:06.842Z,2.67
2022-10-17T06:33:34.978Z,2.47
2022-10-17T06:36:04.751Z,2.40
2022-10-17T06:38:35.318Z,2.63
2022-10-17T06:41:08.730Z,2.30
2022-10-17T06:43:37.571Z,2.65
2022-10-17T06:46:26.642Z,3.20
2022-10-17T06:48:58.430Z,2.83
2022-10-17T06:51:45.505Z,2.83
2022-10-17T06:54:17.714Z,2.95
2022-10-17T06:56:48.514Z,3.00
2022-10-17T06:59:16.683Z,2.95
2022-10-17T07:01:52.400Z,3.15
2022-10-17T07:04:20.465Z,2.83
2022-10-17T07:06:48.476Z,2.75
2022-10-17T07:09:22.827Z,2.80
2022-10-17T07:11:51.407Z,3.05
2022-10-17T07:14:19.987Z,2.80
2022-10-17T07:16:49.958Z,2.85
2022-10-17T07:19:24.270Z,2.75
2022-10-17T07:21:52.426Z,2.92
2022-10-17T07:24:22.682Z,3.13
2022-10-17T07:26:56.164Z,3.10
2022-10-17T07:29:24.348Z,2.90
2022-10-17T07:32:00.985Z,2.38
2022-10-17T07:34:31.427Z,2.83
2022-10-17T07:37:00.314Z,2.70
2022-10-17T07:39:30.662Z,2.60
2022-10-17T07:41:59.529Z,3.08
2022-10-17T07:44:27.539Z,3.20
2022-10-17T07:46:55.703Z,3.08
2022-10-17T07:49:23.838Z,2.80
2022-10-17T07:51:52.266Z,3.03
2022-10-17T07:54:20.260Z,2.95
2022-10-17T07:56:50.834Z,2.88
2022-10-17T07:59:19.338Z,2.85
2022-10-17T08:01:47.302Z,2.70
2022-10-17T08:04:16.766Z,3.20
2022-10-17T08:06:45.122Z,2.78
2022-10-17T08:09:13.099Z,3.08
2022-10-17T08:11:40.999Z,2.90
2022-10-17T08:14:11.503Z,3.15
2022-10-17T08:16:39.476Z,3.25
2022-10-17T08:21:43.614Z,2.75
2022-10-17T08:24:11.676Z,3.33
2022-10-17T08:26:42.463Z,3.33
2022-10-17T08:29:16.016Z,3.00
2022-10-17T08:31:47.719Z,3.05
2022-10-17T08:34:17.067Z,3.00
2022-10-17T08:36:45.191Z,2.90
2022-10-17T08:39:13.194Z,2.75
2022-10-17T08:41:55.654Z,2.65
2022-10-17T08:44:38.615Z,2.47
2022-10-17T08:47:12.106Z,2.90
2022-10-17T08:49:47.805Z,2.72
2022-10-17T08:52:24.001Z,3.00
2022-10-17T08:54:52.514Z,2.70
2022-10-17T08:57:20.579Z,2.80
2022-10-17T08:59:54.517Z,2.60
2022-10-17T09:02:46.842Z,3.05
2022-10-17T09:05:35.640Z,3.05
2022-10-17T09:08:12.662Z,2.63
2022-10-17T09:10:50.137Z,2.70
2022-10-17T09:13:28.080Z,2.80
2022-10-17T09:16:13.593Z,2.83
2022-10-17T09:18:43.999Z,2.92
2022-10-17T09:21:21.853Z,2.53
2022-10-17T09:23:59.670Z,2.80
2022-10-17T09:26:38.367Z,2.95
2022-10-17T09:29:18.489Z,2.80
2022-10-17T09:31:53.193Z,2.63
2022-10-17T09:34:24.002Z,2.72
2022-10-17T09:36:53.559Z,2.90
2022-10-17T09:39:26.086Z,2.80
2022-10-17T09:41:56.594Z,2.80
2022-10-17T09:44:26.229Z,2.55
2022-10-17T09:47:19.054Z,2.45
2022-10-17T09:49:48.700Z,2.47
2022-10-17T09:52:19.290Z,2.50
2022-10-17T09:54:50.428Z,2.47
2022-10-17T09:57:20.958Z,2.88
2022-10-17T09:59:58.273Z,2.45
2022-10-17T10:02:29.559Z,2.83
2022-10-17T10:05:04.256Z,2.67
2022-10-17T10:07:34.060Z,2.65
2022-10-17T10:10:02.976Z,2.78
2022-10-17T10:12:33.182Z,2.72
2022-10-17T10:15:01.685Z,2.60
2022-10-17T10:17:38.327Z,2.67
2022-10-17T10:20:33.175Z,3.10
2022-10-17T10:23:17.197Z,2.88
2022-10-17T10:25:55.076Z,2.78
2022-10-17T10:28:27.025Z,2.70
2022-10-17T10:30:56.504Z,2.80
2022-10-17T10:33:29.629Z,2.40
2022-10-17T10:36:01.577Z,2.78
2022-10-17T10:38:30.718Z,2.70
2022-10-17T10:41:04.112Z,3.05
2022-10-17T10:43:37.836Z,2.40
2022-10-17T10:46:16.450Z,2.65
2022-10-17T10:48:54.882Z,2.67
2022-10-17T10:51:28.076Z,2.60
2022-10-17T10:54:02.673Z,2.60
2022-10-17T10:56:35.543Z,2.50
2022-10-17T10:59:07.605Z,2.33
2022-10-17T11:01:46.230Z,2.80
2022-10-17T11:04:24.413Z,2.40
2022-10-17T11:07:00.078Z,2.20
2022-10-17T11:09:35.779Z,2.50
2022-10-17T11:12:08.945Z,2.42
2022-10-17T11:14:44.435Z,2.35
2022-10-17T11:17:21.194Z,2.47
2022-10-17T11:20:00.449Z,2.10
2022-10-17T11:22:32.415Z,2.30
2022-10-17T11:25:05.796Z,2.10
2022-10-17T11:27:36.134Z,1.85
2022-10-17T11:30:05.451Z,2.20
2022-10-17T11:32:39.916Z,2.10
2022-10-17T11:35:19.430Z,2.03
2022-10-17T11:37:51.002Z,1.75
2022-10-17T11:40:25.127Z,2.00
2022-10-17T11:42:58.129Z,1.90
2022-10-17T11:45:29.524Z,1.80
2022-10-17T11:48:02.884Z,2.15
2022-10-17T11:53:24.913Z,1.98
2022-10-17T11:55:54.798Z,2.00
2022-10-17T11:58:31.050Z,1.80
2022-10-17T12:01:07.993Z,2.03
2022-10-17T12:03:51.754Z,1.90
2022-10-17T12:06:30.826Z,1.67
2022-10-17T12:09:06.028Z,2.10
2022-10-17T12:11:46.120Z,1.90
2022-10-17T12:14:40.790Z,1.65
2022-10-17T12:17:27.247Z,2.08
2022-10-17T12:19:55.659Z,2.17
2022-10-17T12:22:26.769Z,2.00
2022-10-17T12:25:02.722Z,2.10
2022-10-17T12:27:38.074Z,1.90
2022-10-17T12:30:15.940Z,1.80
2022-10-17T12:33:08.334Z,2.10
2022-10-17T12:35:39.246Z,1.88
2022-10-17T12:38:27.927Z,2.10
2022-10-17T12:41:04.490Z,1.60
2022-10-17T12:46:55.584Z,1.98
2022-10-17T12:49:43.619Z,1.95
2022-10-17T12:52:21.670Z,1.95
2022-10-17T12:55:12.029Z,1.48
2022-10-17T12:57:51.441Z,1.83
2022-10-17T13:00:24.030Z,1.73
2022-10-17T13:02:56.118Z,1.70
2022-10-17T13:05:29.542Z,1.85
2022-10-17T13:08:00.774Z,1.60
2022-10-17T13:10:33.204Z,1.98
2022-10-17T13:13:16.270Z,1.67
2022-10-17T13:15:47.926Z,1.65
2022-10-17T13:18:21.261Z,1.98
2022-10-17T13:21:00.770Z,1.98
2022-10-17T13:23:32.738Z,1.85
2022-10-17T13:26:06.984Z,1.70
2022-10-17T13:28:39.171Z,1.85
2022-10-17T13:31:07.827Z,1.65
2022-10-17T13:33:39.277Z,1.80
2022-10-17T13:36:15.664Z,1.67
2022-10-17T13:38:44.140Z,2.00
2022-10-17T13:41:35.972Z,1.50
2022-10-17T13:44:08.764Z,1.70
2022-10-17T13:49:23.245Z,1.50
2022-10-17T13:51:55.629Z,1.58
2022-10-17T13:54:40.123Z,1.80
2022-10-17T13:57:20.390Z,1.63
2022-10-17T13:59:51.268Z,1.50
2022-10-17T14:02:21.905Z,1.83
2022-10-17T14:05:18.533Z,1.90
2022-10-17T14:08:10.894Z,1.60
2022-10-17T14:10:41.142Z,1.70
2022-10-17T14:13:21.956Z,1.55
2022-10-17T14:15:51.031Z,1.65
2022-10-17T14:18:21.581Z,1.88
2022-10-17T14:23:43.905Z,1.85
2022-10-17T14:26:15.398Z,2.00
2022-10-17T14:28:47.626Z,2.03
2022-10-17T14:31:25.890Z,1.88
2022-10-17T14:33:55.606Z,1.85
2022-10-17T14:36:34.164Z,1.70
2022-10-17T14:39:02.793Z,1.55
2022-10-17T14:41:43.564Z,1.80
2022-10-17T14:44:21.363Z,2.03
2022-10-17T14:46:52.918Z,2.38
2022-10-17T14:49:25.464Z,2.08
2022-10-17T14:52:27.277Z,1.67
2022-10-17T14:54:56.123Z,1.73
2022-10-17T14:57:27.268Z,1.70
2022-10-17T14:59:57.392Z,1.95
2022-10-17T15:02:26.509Z,1.85
2022-10-17T15:04:54.996Z,1.75
2022-10-17T15:07:24.195Z,1.90
2022-10-17T15:09:54.274Z,1.38
2022-10-17T15:12:25.169Z,1.67
2022-10-17T15:14:54.331Z,1.55
2022-10-17T15:17:27.345Z,1.67
2022-10-17T15:19:56.097Z,1.80
2022-10-17T15:22:24.739Z,2.00
2022-10-17T15:24:52.766Z,1.58
2022-10-17T15:27:22.015Z,1.90
2022-10-17T15:29:50.584Z,1.60
2022-10-17T15:32:18.743Z,1.90
2022-10-17T15:34:48.139Z,2.28
2022-10-17T15:37:20.754Z,1.95
2022-10-17T15:39:53.071Z,1.90
2022-10-17T15:42:22.601Z,1.97
2022-10-17T15:44:50.747Z,2.22
2022-10-17T15:47:25.717Z,1.90
2022-10-17T15:49:56.184Z,2.10
2022-10-17T15:52:26.490Z,2.13
2022-10-17T15:54:57.302Z,2.03
2022-10-17T15:57:30.306Z,1.70
2022-10-17T16:00:00.767Z,2.03
2022-10-17T16:02:28.981Z,1.95
2022-10-17T16:04:58.337Z,2.30
2022-10-17T16:07:26.532Z,2.30
2022-10-17T16:09:54.490Z,2.15
2022-10-17T16:12:27.930Z,1.90
2022-10-17T16:14:57.334Z,1.95
2022-10-17T16:17:25.309Z,2.42
2022-10-17T16:19:53.397Z,2.63
2022-10-17T16:22:32.015Z,2.17
2022-10-17T16:25:07.651Z,1.85
2022-10-17T16:27:36.104Z,2.28
2022-10-17T16:30:04.805Z,1.90
2022-10-17T16:32:33.368Z,2.40
2022-10-17T16:35:01.493Z,2.58
2022-10-17T16:37:31.562Z,2.40
2022-10-17T16:40:00.559Z,2.13
2022-10-17T16:42:29.243Z,2.30
2022-10-17T16:44:57.621Z,2.80
2022-10-17T16:47:25.657Z,3.10
2022-10-17T16:49:54.682Z,2.78
2022-10-17T16:52:22.609Z,2.83
2022-10-17T16:54:52.067Z,2.83
2022-10-17T16:57:20.299Z,2.40
2022-10-17T16:59:48.284Z,2.45
2022-10-17T17:02:18.957Z,2.42
2022-10-17T17:04:49.299Z,2.70
2022-10-17T17:07:18.581Z,2.60
2022-10-17T17:09:46.547Z,2.80
2022-10-17T17:12:15.957Z,2.88
2022-10-17T17:14:43.944Z,3.25
2022-10-17T17:17:19.540Z,2.60
2022-10-17T17:19:58.540Z,2.75
2022-10-17T17:22:26.549Z,3.00
2022-10-17T17:24:54.504Z,2.78
2022-10-17T17:27:25.817Z,3.20
2022-10-17T17:29:53.955Z,3.20
2022-10-17T17:32:22.004Z,2.80
2022-10-17T17:34:49.934Z,3.13
2022-10-17T17:37:17.960Z,2.78
2022-10-17T17:39:45.900Z,2.92
2022-10-17T17:42:13.871Z,2.70
2022-10-17T17:44:43.140Z,2.78
2022-10-17T17:47:11.105Z,2.60
2022-10-17T17:49:39.397Z,3.10
2022-10-17T17:52:07.410Z,2.83
2022-10-17T17:54:38.551Z,2.80
2022-10-17T17:59:36.808Z,2.83
2022-10-17T18:02:06.838Z,2.85
2022-10-17T18:04:34.896Z,3.03
2022-10-17T18:07:03.067Z,2.97
2022-10-17T18:09:31.035Z,2.92
2022-10-17T18:11:58.995Z,3.35
2022-10-17T18:14:27.226Z,3.22
2022-10-17T18:16:55.215Z,3.00
2022-10-17T18:21:55.266Z,2.92
2022-10-17T18:24:23.365Z,2.97
2022-10-17T18:26:53.958Z,2.80
2022-10-17T18:29:21.840Z,3.08
2022-10-17T18:31:49.817Z,2.97
2022-10-17T18:34:17.959Z,2.67
2022-10-17T18:36:47.236Z,3.08
2022-10-17T18:39:16.800Z,3.28
2022-10-17T18:41:44.896Z,2.83
2022-10-17T18:44:13.343Z,3.38
2022-10-17T18:46:41.903Z,3.28
2022-10-17T18:49:10.992Z,3.15
2022-10-17T18:51:39.022Z,4.07
2022-10-17T18:54:12.683Z,3.22
2022-10-17T18:56:40.853Z,4.13
2022-10-17T18:59:08.795Z,4.15
2022-10-17T19:01:36.868Z,4.18
2022-10-17T19:04:04.913Z,3.70
2022-10-17T19:06:33.429Z,3.63
2022-10-17T19:09:03.083Z,4.07
2022-10-17T19:11:34.014Z,3.65
2022-10-17T19:14:03.533Z,4.00
2022-10-17T19:16:33.876Z,4.68
2022-10-17T19:19:04.147Z,4.28
2022-10-17T19:21:32.647Z,4.00
2022-10-17T19:24:02.570Z,4.22
2022-10-17T19:26:35.558Z,4.03
2022-10-17T19:29:04.587Z,3.80
2022-10-17T19:31:33.825Z,4.57
2022-10-17T19:34:02.185Z,3.90
2022-10-17T19:36:33.961Z,3.60
2022-10-17T19:39:03.005Z,3.92
2022-10-17T19:41:31.230Z,4.32
2022-10-17T19:44:01.603Z,4.00
2022-10-17T19:46:33.921Z,3.90
2022-10-17T19:49:02.610Z,3.60
2022-10-17T19:51:31.133Z,3.20
2022-10-17T19:54:01.110Z,3.25
2022-10-17T19:56:30.647Z,3.08
2022-10-17T19:59:00.614Z,3.30
2022-10-17T20:01:30.227Z,3.42
2022-10-17T20:03:58.274Z,2.85
2022-10-17T20:06:26.616Z,3.50
2022-10-17T20:08:54.616Z,3.00
2022-10-17T20:11:24.566Z,3.00
2022-10-17T20:13:53.182Z,3.50
2022-10-17T20:16:24.237Z,3.15
2022-10-17T20:18:56.418Z,3.25
2022-10-17T20:21:28.245Z,3.55
2022-10-17T20:23:56.309Z,3.03
2022-10-17T20:26:37.456Z,3.60
2022-10-17T20:29:10.835Z,3.40
2022-10-17T20:31:42.428Z,3.53
2022-10-17T20:34:12.777Z,3.38
2022-10-17T20:36:40.829Z,3.22
2022-10-17T20:39:10.551Z,3.10
2022-10-17T20:41:38.502Z,3.40
2022-10-17T20:44:07.751Z,3.13
2022-10-17T20:46:37.880Z,3.00
2022-10-17T20:49:10.296Z,3.00
2022-10-17T20:51:38.296Z,3.40
2022-10-17T20:54:06.381Z,2.97
2022-10-17T20:56:35.901Z,3.80
2022-10-17T20:59:05.927Z,3.70
2022-10-17T21:01:35.571Z,3.45
2022-10-17T21:04:33.207Z,3.20
2022-10-17T21:06:53.891Z,3.63
2022-10-17T21:09:22.008Z,3.22
2022-10-17T21:11:51.536Z,2.95
2022-10-17T21:14:19.818Z,3.15
2022-10-17T21:16:48.217Z,3.50
2022-10-17T21:19:16.819Z,3.17
2022-10-17T21:21:46.692Z,3.50
2022-10-17T21:24:17.977Z,3.30
2022-10-17T21:26:47.494Z,3.38
2022-10-17T21:29:15.705Z,3.47
2022-10-17T21:31:44.960Z,3.17
2022-10-17T21:34:14.684Z,3.50
2022-10-17T21:36:42.984Z,3.33
2022-10-17T21:39:12.534Z,3.95
2022-10-17T21:41:42.905Z,3.45
2022-10-17T21:44:14.626Z,3.20
2022-10-17T21:46:43.081Z,3.00
2022-10-17T21:49:12.811Z,3.30
2022-10-17T21:51:41.477Z,3.28
2022-10-17T21:54:10.197Z,3.85
2022-10-17T21:56:55.889Z,3.42
2022-10-17T21:59:24.223Z,3.58
2022-10-17T22:06:07.116Z,3.47
2022-10-17T22:08:45.681Z,3.70
2022-10-17T22:11:15.642Z,3.50
2022-10-17T22:13:45.341Z,3.58
2022-10-17T22:16:16.331Z,3.63
2022-10-17T22:18:44.553Z,3.60
2022-10-17T22:21:14.399Z,3.90
2022-10-17T22:23:43.069Z,4.00
2022-10-17T22:26:12.302Z,3.72
2022-10-17T22:28:41.845Z,3.70
2022-10-17T22:31:11.427Z,3.90
2022-10-17T22:33:41.123Z,3.45
2022-10-17T22:36:10.140Z,3.25
2022-10-17T22:38:38.592Z,3.65
2022-10-17T22:41:06.928Z,3.78
2022-10-17T22:43:34.887Z,3.17
2022-10-17T22:46:04.950Z,3.55
2022-10-17T22:48:34.537Z,3.45
2022-10-17T22:51:02.900Z,3.50
2022-10-17T22:53:35.053Z,3.65
2022-10-17T22:56:05.579Z,3.33
2022-10-17T22:58:34.983Z,3.67
2022-10-17T23:01:03.890Z,3.35
2022-10-17T23:03:34.835Z,3.42
2022-10-17T23:06:03.307Z,3.30
2022-10-17T23:08:31.808Z,3.13
2022-10-17T23:11:00.428Z,3.95
2022-10-17T23:13:28.559Z,3.38
2022-10-17T23:15:58.141Z,3.17
2022-10-17T23:18:27.355Z,2.95
2022-10-17T23:20:57.167Z,3.22
2022-10-17T23:23:25.392Z,3.10
2022-10-17T23:25:53.395Z,3.40
2022-10-17T23:28:21.380Z,3.05
2022-10-17T23:30:49.365Z,3.38
2022-10-17T23:33:17.407Z,2.88
2022-10-17T23:35:45.505Z,2.92
2022-10-17T23:38:15.274Z,3.38
2022-10-17T23:40:43.268Z,3.17
2022-10-17T23:43:11.183Z,3.30
2022-10-17T23:48:08.181Z,2.90
2022-10-17T23:50:36.195Z,3.10
2022-10-17T23:53:04.221Z,3.08
2022-10-17T23:55:33.727Z,2.92
2022-10-17T23:58:01.664Z,2.80
